SARI METAR and TAF weather

Enter ICAO airport designator
Station Type Date Time Source
SARI METAR 2019/10/23 12:00 UTC NOAA

SARI 231200Z 07005KT CAVOK 21/15 Q1015


Station Type Date Time Source
SARI Decoded METAR 2019/10/23 12:00 UTC NOAA

Iguazu Aerodrome, Argentina (SARI) 25-44S 054-28W 270M
Oct 23, 2019 - 08:00 AM EDT / 2019.10.23 1200 UTC
Wind: from the ENE (070 degrees) at 6 MPH (5 KT):0
Visibility: greater than 7 mile(s):0
Temperature: 69 F (21 C)
Dew Point: 59 F (15 C)
Relative Humidity: 68%
Pressure (altimeter): 29.97 in. Hg (1015 hPa)
ob: SARI 231200Z 07005KT CAVOK 21/15 Q1015
cycle: 12

Station Type Date Time Source
SARI TAF 2019/10/23 12:12 UTC NOAA

TAF SARI 231100Z 2312/2412 22005KT CAVOK TX28/2318Z TN14/2410Z
BECMG 2314/2315 9999 SCT030
BECMG 2321/2322 VRB03KT CAVOK

Example: see airport list